sensor_id;sensor_type;location;lat;lon;timestamp;P1;durP1;ratioP1;P2;durP2;ratioP2
52124;SDS011;38119;52.710;6.398;2022-11-15T00:01:51;27.80;;;17.80;;
52124;SDS011;38119;52.710;6.398;2022-11-15T00:04:17;30.80;;;17.88;;
52124;SDS011;38119;52.710;6.398;2022-11-15T00:06:42;26.92;;;17.25;;
52124;SDS011;38119;52.710;6.398;2022-11-15T00:09:08;27.75;;;17.15;;
52124;SDS011;38119;52.710;6.398;2022-11-15T00:11:33;26.65;;;17.88;;
52124;SDS011;38119;52.710;6.398;2022-11-15T00:13:59;29.85;;;18.45;;
52124;SDS011;38119;52.710;6.398;2022-11-15T00:16:27;30.10;;;17.75;;
52124;SDS011;38119;52.710;6.398;2022-11-15T00:18:53;30.75;;;18.90;;
52124;SDS011;38119;52.710;6.398;2022-11-15T00:21:18;29.35;;;17.80;;
52124;SDS011;38119;52.710;6.398;2022-11-15T00:23:44;28.92;;;17.45;;
52124;SDS011;38119;52.710;6.398;2022-11-15T00:26:13;27.63;;;17.45;;
52124;SDS011;38119;52.710;6.398;2022-11-15T00:28:40;29.27;;;16.95;;
52124;SDS011;38119;52.710;6.398;2022-11-15T00:31:08;25.27;;;16.58;;
52124;SDS011;38119;52.710;6.398;2022-11-15T00:33:36;27.58;;;16.45;;
52124;SDS011;38119;52.710;6.398;2022-11-15T00:36:10;26.33;;;16.35;;
52124;SDS011;38119;52.710;6.398;2022-11-15T00:38:37;27.52;;;16.92;;
52124;SDS011;38119;52.710;6.398;2022-11-15T00:41:04;26.00;;;16.35;;
52124;SDS011;38119;52.710;6.398;2022-11-15T00:43:31;25.98;;;16.73;;
52124;SDS011;38119;52.710;6.398;2022-11-15T00:45:57;26.30;;;16.60;;
52124;SDS011;38119;52.710;6.398;2022-11-15T00:48:22;24.92;;;16.48;;
52124;SDS011;38119;52.710;6.398;2022-11-15T00:50:48;28.77;;;16.33;;
52124;SDS011;38119;52.710;6.398;2022-11-15T00:53:15;29.45;;;15.73;;
52124;SDS011;38119;52.710;6.398;2022-11-15T00:55:41;27.75;;;16.55;;
52124;SDS011;38119;52.710;6.398;2022-11-15T00:58:06;27.38;;;16.50;;
52124;SDS011;38119;52.710;6.398;2022-11-15T01:00:32;28.90;;;17.08;;
52124;SDS011;38119;52.710;6.398;2022-11-15T01:03:01;31.77;;;17.95;;
52124;SDS011;38119;52.710;6.398;2022-11-15T01:05:27;31.20;;;18.13;;
52124;SDS011;38119;52.710;6.398;2022-11-15T01:07:53;24.80;;;16.10;;
52124;SDS011;38119;52.710;6.398;2022-11-15T01:10:20;29.80;;;18.05;;
52124;SDS011;38119;52.710;6.398;2022-11-15T01:12:47;31.58;;;16.48;;
52124;SDS011;38119;52.710;6.398;2022-11-15T01:15:12;29.63;;;16.70;;
52124;SDS011;38119;52.710;6.398;2022-11-15T01:17:38;29.20;;;16.63;;
52124;SDS011;38119;52.710;6.398;2022-11-15T01:20:04;31.58;;;17.63;;
52124;SDS011;38119;52.710;6.398;2022-11-15T01:22:30;29.67;;;16.85;;
52124;SDS011;38119;52.710;6.398;2022-11-15T01:24:56;29.08;;;17.10;;
52124;SDS011;38119;52.710;6.398;2022-11-15T01:27:21;27.73;;;16.40;;
52124;SDS011;38119;52.710;6.398;2022-11-15T01:29:47;30.80;;;16.35;;
52124;SDS011;38119;52.710;6.398;2022-11-15T01:32:12;31.30;;;17.25;;
52124;SDS011;38119;52.710;6.398;2022-11-15T01:34:38;30.15;;;17.13;;
52124;SDS011;38119;52.710;6.398;2022-11-15T01:37:03;28.77;;;16.80;;
52124;SDS011;38119;52.710;6.398;2022-11-15T01:39:29;30.90;;;17.75;;
52124;SDS011;38119;52.710;6.398;2022-11-15T01:41:55;30.02;;;16.75;;
52124;SDS011;38119;52.710;6.398;2022-11-15T01:47:08;30.77;;;17.02;;
52124;SDS011;38119;52.710;6.398;2022-11-15T01:49:50;32.38;;;18.15;;
52124;SDS011;38119;52.710;6.398;2022-11-15T01:52:20;34.42;;;17.77;;
52124;SDS011;38119;52.710;6.398;2022-11-15T01:54:50;31.15;;;16.98;;
52124;SDS011;38119;52.710;6.398;2022-11-15T01:57:21;30.05;;;16.42;;
52124;SDS011;38119;52.710;6.398;2022-11-15T01:59:47;33.50;;;19.05;;
52124;SDS011;38119;52.710;6.398;2022-11-15T02:02:13;30.52;;;17.27;;
52124;SDS011;38119;52.710;6.398;2022-11-15T02:04:43;28.48;;;16.52;;
52124;SDS011;38119;52.710;6.398;2022-11-15T02:07:11;34.17;;;17.20;;
52124;SDS011;38119;52.710;6.398;2022-11-15T02:09:40;33.70;;;16.95;;
52124;SDS011;38119;52.710;6.398;2022-11-15T02:12:06;32.58;;;17.27;;
52124;SDS011;38119;52.710;6.398;2022-11-15T02:14:33;31.02;;;18.23;;
52124;SDS011;38119;52.710;6.398;2022-11-15T02:25:39;37.67;;;18.08;;
52124;SDS011;38119;52.710;6.398;2022-11-15T02:28:42;37.15;;;18.15;;
52124;SDS011;38119;52.710;6.398;2022-11-15T02:31:40;34.33;;;17.83;;
52124;SDS011;38119;52.710;6.398;2022-11-15T02:34:26;36.67;;;17.45;;
52124;SDS011;38119;52.710;6.398;2022-11-15T02:37:16;38.47;;;18.42;;
52124;SDS011;38119;52.710;6.398;2022-11-15T02:39:57;42.05;;;18.17;;
52124;SDS011;38119;52.710;6.398;2022-11-15T02:42:36;37.42;;;18.35;;
52124;SDS011;38119;52.710;6.398;2022-11-15T02:45:33;38.45;;;19.27;;
52124;SDS011;38119;52.710;6.398;2022-11-15T02:48:04;34.25;;;18.23;;
52124;SDS011;38119;52.710;6.398;2022-11-15T02:50:32;41.40;;;19.33;;
52124;SDS011;38119;52.710;6.398;2022-11-15T02:52:59;39.70;;;19.77;;
52124;SDS011;38119;52.710;6.398;2022-11-15T02:55:34;45.10;;;19.80;;
52124;SDS011;38119;52.710;6.398;2022-11-15T03:06:26;38.92;;;20.10;;
52124;SDS011;38119;52.710;6.398;2022-11-15T03:11:47;38.95;;;18.60;;
52124;SDS011;38119;52.710;6.398;2022-11-15T03:14:24;42.38;;;20.58;;
52124;SDS011;38119;52.710;6.398;2022-11-15T03:19:25;45.30;;;20.80;;
52124;SDS011;38119;52.710;6.398;2022-11-15T03:22:03;39.92;;;20.67;;
52124;SDS011;38119;52.710;6.398;2022-11-15T03:24:31;39.65;;;20.70;;
52124;SDS011;38119;52.710;6.398;2022-11-15T03:27:01;39.53;;;20.50;;
52124;SDS011;38119;52.710;6.398;2022-11-15T03:29:31;43.60;;;20.77;;
52124;SDS011;38119;52.710;6.398;2022-11-15T03:32:12;43.60;;;21.33;;
52124;SDS011;38119;52.710;6.398;2022-11-15T03:34:45;42.60;;;21.75;;
52124;SDS011;38119;52.710;6.398;2022-11-15T03:37:15;43.00;;;20.88;;
52124;SDS011;38119;52.710;6.398;2022-11-15T03:39:42;41.35;;;20.80;;
52124;SDS011;38119;52.710;6.398;2022-11-15T03:42:28;44.83;;;21.13;;
52124;SDS011;38119;52.710;6.398;2022-11-15T03:45:01;51.00;;;22.88;;
52124;SDS011;38119;52.710;6.398;2022-11-15T03:48:10;43.42;;;22.77;;
52124;SDS011;38119;52.710;6.398;2022-11-15T03:50:19;43.45;;;20.48;;
52124;SDS011;38119;52.710;6.398;2022-11-15T03:52:47;49.92;;;22.67;;
52124;SDS011;38119;52.710;6.398;2022-11-15T03:55:18;51.22;;;23.40;;
52124;SDS011;38119;52.710;6.398;2022-11-15T03:57:45;45.90;;;22.40;;
52124;SDS011;38119;52.710;6.398;2022-11-15T04:00:13;47.67;;;23.20;;
52124;SDS011;38119;52.710;6.398;2022-11-15T04:02:39;50.72;;;23.40;;
52124;SDS011;38119;52.710;6.398;2022-11-15T04:05:04;50.08;;;24.13;;
52124;SDS011;38119;52.710;6.398;2022-11-15T04:07:30;48.22;;;23.67;;
52124;SDS011;38119;52.710;6.398;2022-11-15T04:09:56;51.85;;;23.33;;
52124;SDS011;38119;52.710;6.398;2022-11-15T04:12:27;43.85;;;23.13;;
52124;SDS011;38119;52.710;6.398;2022-11-15T04:15:07;49.83;;;24.50;;
52124;SDS011;38119;52.710;6.398;2022-11-15T04:17:37;49.90;;;23.27;;
52124;SDS011;38119;52.710;6.398;2022-11-15T04:20:18;48.83;;;23.63;;
52124;SDS011;38119;52.710;6.398;2022-11-15T04:23:09;48.22;;;23.98;;
52124;SDS011;38119;52.710;6.398;2022-11-15T04:26:02;54.38;;;24.92;;
52124;SDS011;38119;52.710;6.398;2022-11-15T04:28:29;48.20;;;25.52;;
52124;SDS011;38119;52.710;6.398;2022-11-15T04:30:55;51.42;;;24.63;;
52124;SDS011;38119;52.710;6.398;2022-11-15T04:33:21;56.25;;;25.85;;
52124;SDS011;38119;52.710;6.398;2022-11-15T04:35:47;50.78;;;24.90;;
52124;SDS011;38119;52.710;6.398;2022-11-15T04:38:33;51.53;;;24.98;;
52124;SDS011;38119;52.710;6.398;2022-11-15T04:40:59;50.85;;;25.63;;
52124;SDS011;38119;52.710;6.398;2022-11-15T04:43:25;48.67;;;25.25;;
52124;SDS011;38119;52.710;6.398;2022-11-15T04:45:50;55.75;;;26.77;;
52124;SDS011;38119;52.710;6.398;2022-11-15T04:48:16;59.55;;;26.50;;
52124;SDS011;38119;52.710;6.398;2022-11-15T04:50:41;52.03;;;25.63;;
52124;SDS011;38119;52.710;6.398;2022-11-15T04:53:07;52.80;;;25.85;;
52124;SDS011;38119;52.710;6.398;2022-11-15T04:55:32;49.88;;;26.45;;
52124;SDS011;38119;52.710;6.398;2022-11-15T04:57:58;52.13;;;26.90;;
52124;SDS011;38119;52.710;6.398;2022-11-15T05:00:25;49.97;;;25.02;;
52124;SDS011;38119;52.710;6.398;2022-11-15T05:02:52;52.38;;;26.10;;
52124;SDS011;38119;52.710;6.398;2022-11-15T05:05:36;49.20;;;25.05;;
52124;SDS011;38119;52.710;6.398;2022-11-15T05:08:02;51.80;;;25.70;;
52124;SDS011;38119;52.710;6.398;2022-11-15T05:10:28;50.50;;;25.45;;
52124;SDS011;38119;52.710;6.398;2022-11-15T05:12:54;55.05;;;25.25;;
52124;SDS011;38119;52.710;6.398;2022-11-15T05:15:19;51.60;;;26.60;;
52124;SDS011;38119;52.710;6.398;2022-11-15T05:17:45;43.45;;;22.90;;
52124;SDS011;38119;52.710;6.398;2022-11-15T05:20:10;47.42;;;23.98;;
52124;SDS011;38119;52.710;6.398;2022-11-15T05:22:36;45.60;;;25.13;;
52124;SDS011;38119;52.710;6.398;2022-11-15T05:25:02;42.60;;;24.23;;
52124;SDS011;38119;52.710;6.398;2022-11-15T05:27:28;41.58;;;24.30;;
52124;SDS011;38119;52.710;6.398;2022-11-15T05:29:54;48.35;;;24.63;;
52124;SDS011;38119;52.710;6.398;2022-11-15T05:32:19;41.22;;;23.23;;
52124;SDS011;38119;52.710;6.398;2022-11-15T05:34:45;42.90;;;22.92;;
52124;SDS011;38119;52.710;6.398;2022-11-15T05:37:11;44.88;;;24.95;;
52124;SDS011;38119;52.710;6.398;2022-11-15T05:39:38;49.60;;;24.48;;
52124;SDS011;38119;52.710;6.398;2022-11-15T05:44:36;41.47;;;23.67;;
52124;SDS011;38119;52.710;6.398;2022-11-15T05:47:05;47.15;;;22.73;;
52124;SDS011;38119;52.710;6.398;2022-11-15T05:49:34;46.20;;;23.52;;
52124;SDS011;38119;52.710;6.398;2022-11-15T05:52:03;46.75;;;24.42;;
52124;SDS011;38119;52.710;6.398;2022-11-15T05:54:32;46.47;;;24.33;;
52124;SDS011;38119;52.710;6.398;2022-11-15T05:56:59;45.20;;;25.33;;
52124;SDS011;38119;52.710;6.398;2022-11-15T05:59:25;51.35;;;24.77;;
52124;SDS011;38119;52.710;6.398;2022-11-15T06:01:53;52.38;;;24.00;;
52124;SDS011;38119;52.710;6.398;2022-11-15T06:04:18;43.65;;;22.50;;
52124;SDS011;38119;52.710;6.398;2022-11-15T06:06:44;50.40;;;24.60;;
52124;SDS011;38119;52.710;6.398;2022-11-15T06:09:10;45.03;;;24.05;;
52124;SDS011;38119;52.710;6.398;2022-11-15T06:11:35;49.03;;;24.42;;
52124;SDS011;38119;52.710;6.398;2022-11-15T06:14:01;49.35;;;24.50;;
52124;SDS011;38119;52.710;6.398;2022-11-15T06:16:26;43.92;;;23.38;;
52124;SDS011;38119;52.710;6.398;2022-11-15T06:18:52;46.08;;;23.90;;
52124;SDS011;38119;52.710;6.398;2022-11-15T06:21:17;45.20;;;22.90;;
52124;SDS011;38119;52.710;6.398;2022-11-15T06:23:43;46.67;;;24.38;;
52124;SDS011;38119;52.710;6.398;2022-11-15T06:26:09;45.92;;;22.65;;
52124;SDS011;38119;52.710;6.398;2022-11-15T06:28:34;47.05;;;22.55;;
52124;SDS011;38119;52.710;6.398;2022-11-15T06:31:04;43.75;;;22.83;;
52124;SDS011;38119;52.710;6.398;2022-11-15T06:33:30;42.42;;;23.10;;
52124;SDS011;38119;52.710;6.398;2022-11-15T06:35:59;40.33;;;21.83;;
52124;SDS011;38119;52.710;6.398;2022-11-15T06:38:28;39.70;;;22.95;;
52124;SDS011;38119;52.710;6.398;2022-11-15T06:40:54;42.47;;;22.55;;
52124;SDS011;38119;52.710;6.398;2022-11-15T06:43:20;40.05;;;22.60;;
52124;SDS011;38119;52.710;6.398;2022-11-15T06:45:45;42.83;;;23.00;;
52124;SDS011;38119;52.710;6.398;2022-11-15T06:48:11;40.03;;;21.83;;
52124;SDS011;38119;52.710;6.398;2022-11-15T06:50:36;42.70;;;22.83;;
52124;SDS011;38119;52.710;6.398;2022-11-15T06:53:05;37.35;;;21.98;;
52124;SDS011;38119;52.710;6.398;2022-11-15T06:55:31;39.65;;;21.85;;
52124;SDS011;38119;52.710;6.398;2022-11-15T06:57:56;41.55;;;21.98;;
52124;SDS011;38119;52.710;6.398;2022-11-15T07:00:22;39.67;;;22.30;;
52124;SDS011;38119;52.710;6.398;2022-11-15T07:02:48;39.20;;;22.83;;
52124;SDS011;38119;52.710;6.398;2022-11-15T07:05:14;36.95;;;21.75;;
52124;SDS011;38119;52.710;6.398;2022-11-15T07:07:40;37.33;;;22.63;;
52124;SDS011;38119;52.710;6.398;2022-11-15T07:10:06;35.33;;;21.35;;
52124;SDS011;38119;52.710;6.398;2022-11-15T07:12:32;36.22;;;21.55;;
52124;SDS011;38119;52.710;6.398;2022-11-15T07:14:58;37.95;;;21.13;;
52124;SDS011;38119;52.710;6.398;2022-11-15T07:17:23;34.17;;;21.38;;
52124;SDS011;38119;52.710;6.398;2022-11-15T07:19:49;35.65;;;20.60;;
52124;SDS011;38119;52.710;6.398;2022-11-15T07:22:14;34.72;;;21.17;;
52124;SDS011;38119;52.710;6.398;2022-11-15T07:24:40;34.20;;;20.70;;
52124;SDS011;38119;52.710;6.398;2022-11-15T07:27:06;36.17;;;21.50;;
52124;SDS011;38119;52.710;6.398;2022-11-15T07:29:31;33.40;;;20.00;;
52124;SDS011;38119;52.710;6.398;2022-11-15T07:31:57;34.90;;;19.98;;
52124;SDS011;38119;52.710;6.398;2022-11-15T07:34:22;33.58;;;20.15;;
52124;SDS011;38119;52.710;6.398;2022-11-15T07:36:48;35.65;;;19.92;;
52124;SDS011;38119;52.710;6.398;2022-11-15T07:39:14;33.22;;;20.17;;
52124;SDS011;38119;52.710;6.398;2022-11-15T07:41:40;37.42;;;20.83;;
52124;SDS011;38119;52.710;6.398;2022-11-15T07:44:05;39.30;;;20.73;;
52124;SDS011;38119;52.710;6.398;2022-11-15T07:46:31;40.03;;;21.48;;
52124;SDS011;38119;52.710;6.398;2022-11-15T07:48:56;37.47;;;20.05;;
52124;SDS011;38119;52.710;6.398;2022-11-15T07:51:25;34.65;;;20.38;;
52124;SDS011;38119;52.710;6.398;2022-11-15T07:53:51;38.42;;;20.48;;
52124;SDS011;38119;52.710;6.398;2022-11-15T07:56:16;36.33;;;21.33;;
52124;SDS011;38119;52.710;6.398;2022-11-15T07:58:42;35.47;;;21.60;;
52124;SDS011;38119;52.710;6.398;2022-11-15T08:01:10;32.17;;;20.38;;
52124;SDS011;38119;52.710;6.398;2022-11-15T08:03:36;35.72;;;20.05;;
52124;SDS011;38119;52.710;6.398;2022-11-15T08:06:02;34.13;;;20.23;;
52124;SDS011;38119;52.710;6.398;2022-11-15T08:08:28;34.55;;;21.33;;
52124;SDS011;38119;52.710;6.398;2022-11-15T08:10:54;32.53;;;20.52;;
52124;SDS011;38119;52.710;6.398;2022-11-15T08:13:19;32.45;;;19.45;;
52124;SDS011;38119;52.710;6.398;2022-11-15T08:15:46;35.35;;;20.83;;
52124;SDS011;38119;52.710;6.398;2022-11-15T08:18:13;36.17;;;20.50;;
52124;SDS011;38119;52.710;6.398;2022-11-15T08:20:39;34.92;;;19.70;;
52124;SDS011;38119;52.710;6.398;2022-11-15T08:23:06;39.22;;;20.67;;
52124;SDS011;38119;52.710;6.398;2022-11-15T08:25:33;31.20;;;19.58;;
52124;SDS011;38119;52.710;6.398;2022-11-15T08:28:00;34.70;;;19.63;;
52124;SDS011;38119;52.710;6.398;2022-11-15T08:30:28;34.30;;;20.13;;
52124;SDS011;38119;52.710;6.398;2022-11-15T08:32:55;29.15;;;18.77;;
52124;SDS011;38119;52.710;6.398;2022-11-15T08:35:22;37.65;;;20.15;;
52124;SDS011;38119;52.710;6.398;2022-11-15T08:37:49;33.75;;;20.17;;
52124;SDS011;38119;52.710;6.398;2022-11-15T08:40:17;33.10;;;20.00;;
52124;SDS011;38119;52.710;6.398;2022-11-15T08:42:45;29.63;;;19.15;;
52124;SDS011;38119;52.710;6.398;2022-11-15T08:45:11;37.10;;;20.27;;
52124;SDS011;38119;52.710;6.398;2022-11-15T08:47:37;33.53;;;19.15;;
52124;SDS011;38119;52.710;6.398;2022-11-15T08:50:02;34.92;;;20.48;;
52124;SDS011;38119;52.710;6.398;2022-11-15T08:52:28;35.40;;;19.73;;
52124;SDS011;38119;52.710;6.398;2022-11-15T08:54:54;32.55;;;19.38;;
52124;SDS011;38119;52.710;6.398;2022-11-15T08:57:20;32.22;;;20.00;;
52124;SDS011;38119;52.710;6.398;2022-11-15T08:59:45;33.22;;;20.63;;
52124;SDS011;38119;52.710;6.398;2022-11-15T09:02:12;33.90;;;20.65;;
52124;SDS011;38119;52.710;6.398;2022-11-15T09:04:41;33.10;;;19.83;;
52124;SDS011;38119;52.710;6.398;2022-11-15T09:07:11;29.52;;;18.95;;
52124;SDS011;38119;52.710;6.398;2022-11-15T09:09:37;28.92;;;18.65;;
52124;SDS011;38119;52.710;6.398;2022-11-15T09:12:03;30.75;;;18.45;;
52124;SDS011;38119;52.710;6.398;2022-11-15T09:14:30;34.85;;;18.98;;
52124;SDS011;38119;52.710;6.398;2022-11-15T09:16:56;35.33;;;19.25;;
52124;SDS011;38119;52.710;6.398;2022-11-15T09:19:22;30.02;;;18.33;;
52124;SDS011;38119;52.710;6.398;2022-11-15T09:21:47;30.27;;;18.27;;
52124;SDS011;38119;52.710;6.398;2022-11-15T09:24:13;30.48;;;17.80;;
52124;SDS011;38119;52.710;6.398;2022-11-15T09:26:39;28.27;;;17.88;;
52124;SDS011;38119;52.710;6.398;2022-11-15T09:29:05;27.75;;;18.02;;
52124;SDS011;38119;52.710;6.398;2022-11-15T09:31:31;26.70;;;17.83;;
52124;SDS011;38119;52.710;6.398;2022-11-15T09:33:57;27.05;;;17.77;;
52124;SDS011;38119;52.710;6.398;2022-11-15T09:36:22;30.85;;;16.52;;
52124;SDS011;38119;52.710;6.398;2022-11-15T09:38:48;28.35;;;17.48;;
52124;SDS011;38119;52.710;6.398;2022-11-15T09:48:55;22.25;;;14.18;;
52124;SDS011;38119;52.710;6.398;2022-11-15T09:51:31;22.50;;;14.02;;
52124;SDS011;38119;52.710;6.398;2022-11-15T09:54:31;21.13;;;13.05;;
52124;SDS011;38119;52.710;6.398;2022-11-15T09:57:03;19.42;;;13.18;;
52124;SDS011;38119;52.710;6.398;2022-11-15T10:04:39;19.67;;;12.15;;
52124;SDS011;38119;52.710;6.398;2022-11-15T10:10:11;16.35;;;10.63;;
52124;SDS011;38119;52.710;6.398;2022-11-15T10:12:47;20.10;;;10.88;;
52124;SDS011;38119;52.710;6.398;2022-11-15T10:15:16;17.90;;;11.48;;
52124;SDS011;38119;52.710;6.398;2022-11-15T10:25:34;15.65;;;9.52;;
52124;SDS011;38119;52.710;6.398;2022-11-15T10:38:43;14.35;;;8.07;;
52124;SDS011;38119;52.710;6.398;2022-11-15T10:41:28;18.90;;;7.50;;
52124;SDS011;38119;52.710;6.398;2022-11-15T10:44:07;9.85;;;6.95;;
52124;SDS011;38119;52.710;6.398;2022-11-15T10:46:45;11.95;;;7.25;;
52124;SDS011;38119;52.710;6.398;2022-11-15T10:49:21;10.23;;;7.07;;
52124;SDS011;38119;52.710;6.398;2022-11-15T10:51:57;12.65;;;7.35;;
52124;SDS011;38119;52.710;6.398;2022-11-15T10:54:48;14.55;;;6.40;;
52124;SDS011;38119;52.710;6.398;2022-11-15T10:57:51;10.63;;;6.10;;
52124;SDS011;38119;52.710;6.398;2022-11-15T11:05:30;10.65;;;5.75;;
52124;SDS011;38119;52.710;6.398;2022-11-15T11:08:04;10.95;;;6.18;;
52124;SDS011;38119;52.710;6.398;2022-11-15T11:10:53;14.38;;;6.30;;
52124;SDS011;38119;52.710;6.398;2022-11-15T11:19:21;8.85;;;5.72;;
52124;SDS011;38119;52.710;6.398;2022-11-15T11:21:52;11.55;;;5.10;;
52124;SDS011;38119;52.710;6.398;2022-11-15T11:24:30;9.65;;;4.90;;
52124;SDS011;38119;52.710;6.398;2022-11-15T11:27:18;11.23;;;5.65;;
52124;SDS011;38119;52.710;6.398;2022-11-15T11:36:03;10.82;;;4.88;;
52124;SDS011;38119;52.710;6.398;2022-11-15T11:38:53;7.53;;;4.43;;
52124;SDS011;38119;52.710;6.398;2022-11-15T11:44:32;9.75;;;4.20;;
52124;SDS011;38119;52.710;6.398;2022-11-15T11:47:10;10.87;;;3.93;;
52124;SDS011;38119;52.710;6.398;2022-11-15T12:11:18;9.63;;;3.78;;
52124;SDS011;38119;52.710;6.398;2022-11-15T12:13:48;7.53;;;3.60;;
52124;SDS011;38119;52.710;6.398;2022-11-15T12:16:51;8.02;;;3.33;;
52124;SDS011;38119;52.710;6.398;2022-11-15T12:19:10;7.55;;;3.63;;
52124;SDS011;38119;52.710;6.398;2022-11-15T12:26:49;7.07;;;3.30;;
52124;SDS011;38119;52.710;6.398;2022-11-15T12:29:41;7.18;;;3.22;;
52124;SDS011;38119;52.710;6.398;2022-11-15T12:32:24;8.32;;;3.67;;
52124;SDS011;38119;52.710;6.398;2022-11-15T12:34:58;6.43;;;3.03;;
52124;SDS011;38119;52.710;6.398;2022-11-15T12:40:05;6.07;;;3.55;;
52124;SDS011;38119;52.710;6.398;2022-11-15T12:42:35;5.20;;;2.90;;
52124;SDS011;38119;52.710;6.398;2022-11-15T12:45:24;6.57;;;2.85;;
52124;SDS011;38119;52.710;6.398;2022-11-15T12:47:50;3.65;;;2.65;;
52124;SDS011;38119;52.710;6.398;2022-11-15T12:50:15;4.57;;;2.60;;
52124;SDS011;38119;52.710;6.398;2022-11-15T12:53:25;5.50;;;2.72;;
52124;SDS011;38119;52.710;6.398;2022-11-15T12:58:44;5.70;;;2.28;;
52124;SDS011;38119;52.710;6.398;2022-11-15T13:17:26;9.35;;;2.72;;
52124;SDS011;38119;52.710;6.398;2022-11-15T13:27:58;5.82;;;2.33;;
52124;SDS011;38119;52.710;6.398;2022-11-15T13:30:26;3.55;;;2.10;;
52124;SDS011;38119;52.710;6.398;2022-11-15T13:32:55;3.83;;;2.33;;
52124;SDS011;38119;52.710;6.398;2022-11-15T13:35:32;3.88;;;2.03;;
52124;SDS011;38119;52.710;6.398;2022-11-15T13:38:03;5.10;;;1.90;;
52124;SDS011;38119;52.710;6.398;2022-11-15T13:40:34;4.60;;;2.03;;
52124;SDS011;38119;52.710;6.398;2022-11-15T13:43:46;3.45;;;1.80;;
52124;SDS011;38119;52.710;6.398;2022-11-15T13:46:07;3.22;;;1.60;;
52124;SDS011;38119;52.710;6.398;2022-11-15T13:51:09;2.75;;;1.63;;
52124;SDS011;38119;52.710;6.398;2022-11-15T13:53:48;2.53;;;1.50;;
52124;SDS011;38119;52.710;6.398;2022-11-15T13:56:49;2.25;;;1.52;;
52124;SDS011;38119;52.710;6.398;2022-11-15T14:01:55;3.22;;;1.30;;
52124;SDS011;38119;52.710;6.398;2022-11-15T14:04:25;3.38;;;1.10;;
52124;SDS011;38119;52.710;6.398;2022-11-15T14:06:55;4.03;;;1.30;;
52124;SDS011;38119;52.710;6.398;2022-11-15T14:11:57;4.75;;;1.50;;
52124;SDS011;38119;52.710;6.398;2022-11-15T14:14:25;5.05;;;1.48;;
52124;SDS011;38119;52.710;6.398;2022-11-15T14:16:55;4.60;;;1.67;;
52124;SDS011;38119;52.710;6.398;2022-11-15T14:24:44;4.33;;;2.10;;
52124;SDS011;38119;52.710;6.398;2022-11-15T14:30:12;6.32;;;2.65;;
52124;SDS011;38119;52.710;6.398;2022-11-15T14:32:45;4.47;;;2.10;;
52124;SDS011;38119;52.710;6.398;2022-11-15T14:35:16;5.13;;;2.42;;
52124;SDS011;38119;52.710;6.398;2022-11-15T14:37:46;4.50;;;2.57;;
52124;SDS011;38119;52.710;6.398;2022-11-15T14:40:14;5.32;;;2.53;;
52124;SDS011;38119;52.710;6.398;2022-11-15T14:42:42;4.35;;;2.90;;
52124;SDS011;38119;52.710;6.398;2022-11-15T14:45:14;6.32;;;2.28;;
52124;SDS011;38119;52.710;6.398;2022-11-15T14:47:42;5.10;;;2.55;;
52124;SDS011;38119;52.710;6.398;2022-11-15T14:50:15;5.20;;;2.67;;
52124;SDS011;38119;52.710;6.398;2022-11-15T14:52:43;6.15;;;2.80;;
52124;SDS011;38119;52.710;6.398;2022-11-15T14:55:19;5.78;;;3.13;;
52124;SDS011;38119;52.710;6.398;2022-11-15T14:57:52;7.10;;;3.17;;
52124;SDS011;38119;52.710;6.398;2022-11-15T15:00:18;7.13;;;3.92;;
52124;SDS011;38119;52.710;6.398;2022-11-15T15:02:45;6.43;;;3.58;;
52124;SDS011;38119;52.710;6.398;2022-11-15T15:07:43;7.47;;;4.20;;
52124;SDS011;38119;52.710;6.398;2022-11-15T15:10:09;8.05;;;4.32;;
52124;SDS011;38119;52.710;6.398;2022-11-15T15:12:35;7.57;;;4.72;;
52124;SDS011;38119;52.710;6.398;2022-11-15T15:15:01;9.13;;;5.13;;
52124;SDS011;38119;52.710;6.398;2022-11-15T15:17:30;6.88;;;5.05;;
52124;SDS011;38119;52.710;6.398;2022-11-15T15:19:56;7.18;;;5.10;;
52124;SDS011;38119;52.710;6.398;2022-11-15T15:22:21;8.43;;;5.47;;
52124;SDS011;38119;52.710;6.398;2022-11-15T15:24:50;9.60;;;5.38;;
52124;SDS011;38119;52.710;6.398;2022-11-15T15:27:16;8.15;;;5.18;;
52124;SDS011;38119;52.710;6.398;2022-11-15T15:29:42;8.30;;;5.40;;
52124;SDS011;38119;52.710;6.398;2022-11-15T15:32:08;9.68;;;6.18;;
52124;SDS011;38119;52.710;6.398;2022-11-15T15:34:35;9.13;;;5.63;;
52124;SDS011;38119;52.710;6.398;2022-11-15T15:37:22;9.95;;;5.95;;
52124;SDS011;38119;52.710;6.398;2022-11-15T15:39:52;10.57;;;6.43;;
52124;SDS011;38119;52.710;6.398;2022-11-15T15:42:19;15.23;;;9.38;;
52124;SDS011;38119;52.710;6.398;2022-11-15T15:44:46;9.52;;;6.85;;
52124;SDS011;38119;52.710;6.398;2022-11-15T15:47:13;18.33;;;16.45;;
52124;SDS011;38119;52.710;6.398;2022-11-15T15:49:47;11.85;;;8.48;;
52124;SDS011;38119;52.710;6.398;2022-11-15T15:52:14;9.40;;;7.60;;
52124;SDS011;38119;52.710;6.398;2022-11-15T15:54:40;8.13;;;6.38;;
52124;SDS011;38119;52.710;6.398;2022-11-15T15:57:06;10.00;;;6.88;;
52124;SDS011;38119;52.710;6.398;2022-11-15T15:59:35;12.35;;;9.07;;
52124;SDS011;38119;52.710;6.398;2022-11-15T16:02:01;10.50;;;7.55;;
52124;SDS011;38119;52.710;6.398;2022-11-15T16:04:26;9.98;;;7.60;;
52124;SDS011;38119;52.710;6.398;2022-11-15T16:06:57;10.07;;;7.78;;
52124;SDS011;38119;52.710;6.398;2022-11-15T16:09:26;18.15;;;12.82;;
52124;SDS011;38119;52.710;6.398;2022-11-15T16:12:10;15.35;;;10.45;;
52124;SDS011;38119;52.710;6.398;2022-11-15T16:14:36;9.57;;;6.95;;
52124;SDS011;38119;52.710;6.398;2022-11-15T16:17:02;7.57;;;6.00;;
52124;SDS011;38119;52.710;6.398;2022-11-15T16:19:28;8.25;;;5.82;;
52124;SDS011;38119;52.710;6.398;2022-11-15T16:21:56;10.93;;;5.10;;
52124;SDS011;38119;52.710;6.398;2022-11-15T16:24:22;8.60;;;5.25;;
52124;SDS011;38119;52.710;6.398;2022-11-15T16:26:48;6.82;;;5.32;;
52124;SDS011;38119;52.710;6.398;2022-11-15T16:29:16;8.60;;;5.60;;
52124;SDS011;38119;52.710;6.398;2022-11-15T16:31:41;9.13;;;4.68;;
52124;SDS011;38119;52.710;6.398;2022-11-15T16:34:07;7.00;;;4.85;;
52124;SDS011;38119;52.710;6.398;2022-11-15T16:36:33;8.10;;;4.70;;
52124;SDS011;38119;52.710;6.398;2022-11-15T16:39:00;8.07;;;4.30;;
52124;SDS011;38119;52.710;6.398;2022-11-15T16:41:29;6.55;;;3.70;;
52124;SDS011;38119;52.710;6.398;2022-11-15T16:43:55;6.10;;;3.53;;
52124;SDS011;38119;52.710;6.398;2022-11-15T16:46:21;7.05;;;3.30;;
52124;SDS011;38119;52.710;6.398;2022-11-15T16:48:49;5.53;;;3.00;;
52124;SDS011;38119;52.710;6.398;2022-11-15T16:51:15;5.18;;;3.00;;
52124;SDS011;38119;52.710;6.398;2022-11-15T16:53:41;6.72;;;3.25;;
52124;SDS011;38119;52.710;6.398;2022-11-15T16:58:42;6.15;;;3.17;;
52124;SDS011;38119;52.710;6.398;2022-11-15T17:01:09;4.65;;;3.25;;
52124;SDS011;38119;52.710;6.398;2022-11-15T17:03:46;6.80;;;3.00;;
52124;SDS011;38119;52.710;6.398;2022-11-15T17:06:12;4.47;;;2.80;;
52124;SDS011;38119;52.710;6.398;2022-11-15T17:08:38;4.57;;;2.55;;
52124;SDS011;38119;52.710;6.398;2022-11-15T17:11:04;8.80;;;2.50;;
52124;SDS011;38119;52.710;6.398;2022-11-15T17:13:30;5.22;;;1.77;;
52124;SDS011;38119;52.710;6.398;2022-11-15T17:16:08;5.55;;;2.33;;
52124;SDS011;38119;52.710;6.398;2022-11-15T17:18:35;3.25;;;2.10;;
52124;SDS011;38119;52.710;6.398;2022-11-15T17:21:09;8.02;;;2.53;;
52124;SDS011;38119;52.710;6.398;2022-11-15T17:23:37;5.97;;;2.30;;